ESSA/ARN METAR and TAF weather

Enter ICAO airport designator
Station Type Date Time Source
ESSA METAR 2021/09/16 21:20 UTC NOAA

ESSA 162120Z 06010KT 9999 OVC038 09/05 Q1018 NOSIG


Station Type Date Time Source
ESSA Decoded METAR 2021/09/16 21:20 UTC NOAA

Stockholm / Arlanda, Sweden (ESSA) 59-39N 017-57E 61M
Sep 16, 2021 - 05:20 PM EDT / 2021.09.16 2120 UTC
Wind: from the ENE (060 degrees) at 12 MPH (10 KT):0
Visibility: greater than 7 mile(s):0
Sky conditions: overcast
Temperature: 48 F (9 C)
Dew Point: 41 F (5 C)
Relative Humidity: 75%
Pressure (altimeter): 30.06 in. Hg (1018 hPa)
ob: ESSA 162120Z 06010KT 9999 OVC038 09/05 Q1018 NOSIG
cycle: 21

Station Type Date Time Source
ESSA TAF 2021/09/16 18:12 UTC NOAA

TAF ESSA 161730Z 1618/1718 04008KT 9999 BKN030

Example: see airport list